sensor_id;sensor_type;location;lat;lon;timestamp;P1;durP1;ratioP1;P2;durP2;ratioP2
25231;SDS011;13176;51.140;6.290;2022-08-25T00:01:46;15.20;;;13.50;;
25231;SDS011;13176;51.140;6.290;2022-08-25T00:04:17;17.20;;;15.65;;
25231;SDS011;13176;51.140;6.290;2022-08-25T00:06:46;17.50;;;15.95;;
25231;SDS011;13176;51.140;6.290;2022-08-25T00:09:13;17.60;;;16.00;;
25231;SDS011;13176;51.140;6.290;2022-08-25T00:11:43;18.13;;;16.65;;
25231;SDS011;13176;51.140;6.290;2022-08-25T00:14:11;19.40;;;18.00;;
25231;SDS011;13176;51.140;6.290;2022-08-25T00:16:40;21.98;;;20.67;;
25231;SDS011;13176;51.140;6.290;2022-08-25T00:19:19;21.48;;;19.65;;
25231;SDS011;13176;51.140;6.290;2022-08-25T00:21:50;22.17;;;20.73;;
25231;SDS011;13176;51.140;6.290;2022-08-25T00:24:17;22.88;;;21.30;;
25231;SDS011;13176;51.140;6.290;2022-08-25T00:26:45;21.00;;;19.60;;
25231;SDS011;13176;51.140;6.290;2022-08-25T00:29:14;18.95;;;17.60;;
25231;SDS011;13176;51.140;6.290;2022-08-25T00:31:42;18.15;;;16.85;;
25231;SDS011;13176;51.140;6.290;2022-08-25T00:34:10;19.17;;;17.77;;
25231;SDS011;13176;51.140;6.290;2022-08-25T00:36:41;18.15;;;17.05;;
25231;SDS011;13176;51.140;6.290;2022-08-25T00:39:08;17.77;;;16.35;;
25231;SDS011;13176;51.140;6.290;2022-08-25T00:41:36;17.13;;;15.95;;
25231;SDS011;13176;51.140;6.290;2022-08-25T00:44:05;18.77;;;17.17;;
25231;SDS011;13176;51.140;6.290;2022-08-25T00:46:35;17.88;;;16.20;;
25231;SDS011;13176;51.140;6.290;2022-08-25T00:49:13;15.52;;;14.52;;
25231;SDS011;13176;51.140;6.290;2022-08-25T00:51:52;17.50;;;15.75;;
25231;SDS011;13176;51.140;6.290;2022-08-25T00:54:22;15.98;;;14.75;;
25231;SDS011;13176;51.140;6.290;2022-08-25T00:56:55;17.42;;;16.20;;
25231;SDS011;13176;51.140;6.290;2022-08-25T00:59:23;17.88;;;16.50;;
25231;SDS011;13176;51.140;6.290;2022-08-25T01:01:52;19.00;;;17.75;;
25231;SDS011;13176;51.140;6.290;2022-08-25T01:04:19;17.58;;;16.27;;
25231;SDS011;13176;51.140;6.290;2022-08-25T01:06:47;17.25;;;15.85;;
25231;SDS011;13176;51.140;6.290;2022-08-25T01:09:14;19.70;;;18.60;;
25231;SDS011;13176;51.140;6.290;2022-08-25T01:11:42;16.95;;;15.80;;
25231;SDS011;13176;51.140;6.290;2022-08-25T01:14:10;19.27;;;17.60;;
25231;SDS011;13176;51.140;6.290;2022-08-25T01:16:40;15.98;;;14.68;;
25231;SDS011;13176;51.140;6.290;2022-08-25T01:19:09;17.55;;;16.55;;
25231;SDS011;13176;51.140;6.290;2022-08-25T01:21:41;18.35;;;17.05;;
25231;SDS011;13176;51.140;6.290;2022-08-25T01:24:10;17.00;;;15.63;;
25231;SDS011;13176;51.140;6.290;2022-08-25T01:26:49;17.25;;;15.95;;
25231;SDS011;13176;51.140;6.290;2022-08-25T01:29:16;16.83;;;15.65;;
25231;SDS011;13176;51.140;6.290;2022-08-25T01:31:50;18.13;;;16.70;;
25231;SDS011;13176;51.140;6.290;2022-08-25T01:34:30;16.98;;;15.48;;
25231;SDS011;13176;51.140;6.290;2022-08-25T01:36:57;17.15;;;15.55;;
25231;SDS011;13176;51.140;6.290;2022-08-25T01:39:26;18.33;;;16.75;;
25231;SDS011;13176;51.140;6.290;2022-08-25T01:44:36;18.17;;;17.10;;
25231;SDS011;13176;51.140;6.290;2022-08-25T01:47:04;17.67;;;16.55;;
25231;SDS011;13176;51.140;6.290;2022-08-25T01:49:32;20.10;;;18.77;;
25231;SDS011;13176;51.140;6.290;2022-08-25T01:52:48;19.35;;;17.60;;
25231;SDS011;13176;51.140;6.290;2022-08-25T01:54:54;17.35;;;16.25;;
25231;SDS011;13176;51.140;6.290;2022-08-25T01:57:21;17.30;;;15.77;;
25231;SDS011;13176;51.140;6.290;2022-08-25T01:59:47;16.98;;;15.60;;
25231;SDS011;13176;51.140;6.290;2022-08-25T02:02:14;15.57;;;14.25;;
25231;SDS011;13176;51.140;6.290;2022-08-25T02:04:43;12.40;;;11.40;;
25231;SDS011;13176;51.140;6.290;2022-08-25T02:07:10;11.75;;;10.85;;
25231;SDS011;13176;51.140;6.290;2022-08-25T02:09:36;13.45;;;12.52;;
25231;SDS011;13176;51.140;6.290;2022-08-25T02:12:03;13.18;;;12.27;;
25231;SDS011;13176;51.140;6.290;2022-08-25T02:14:30;13.20;;;12.20;;
25231;SDS011;13176;51.140;6.290;2022-08-25T02:16:56;14.32;;;13.25;;
25231;SDS011;13176;51.140;6.290;2022-08-25T02:19:24;12.60;;;11.75;;
25231;SDS011;13176;51.140;6.290;2022-08-25T02:21:51;14.20;;;13.32;;
25231;SDS011;13176;51.140;6.290;2022-08-25T02:24:18;12.73;;;11.73;;
25231;SDS011;13176;51.140;6.290;2022-08-25T02:26:46;12.05;;;11.25;;
25231;SDS011;13176;51.140;6.290;2022-08-25T02:29:12;14.77;;;12.23;;
25231;SDS011;13176;51.140;6.290;2022-08-25T02:31:39;13.27;;;12.35;;
25231;SDS011;13176;51.140;6.290;2022-08-25T02:34:06;13.70;;;12.57;;
25231;SDS011;13176;51.140;6.290;2022-08-25T02:36:33;13.38;;;12.05;;
25231;SDS011;13176;51.140;6.290;2022-08-25T02:39:00;12.63;;;11.70;;
25231;SDS011;13176;51.140;6.290;2022-08-25T02:41:29;13.25;;;12.43;;
25231;SDS011;13176;51.140;6.290;2022-08-25T02:43:57;12.13;;;11.13;;
25231;SDS011;13176;51.140;6.290;2022-08-25T02:46:24;14.30;;;13.20;;
25231;SDS011;13176;51.140;6.290;2022-08-25T02:48:50;12.48;;;11.77;;
25231;SDS011;13176;51.140;6.290;2022-08-25T02:51:19;14.48;;;13.57;;
25231;SDS011;13176;51.140;6.290;2022-08-25T02:53:47;15.07;;;13.80;;
25231;SDS011;13176;51.140;6.290;2022-08-25T02:56:15;14.55;;;13.45;;
25231;SDS011;13176;51.140;6.290;2022-08-25T02:58:44;15.07;;;13.93;;
25231;SDS011;13176;51.140;6.290;2022-08-25T03:01:11;15.02;;;13.60;;
25231;SDS011;13176;51.140;6.290;2022-08-25T03:03:39;14.70;;;13.35;;
25231;SDS011;13176;51.140;6.290;2022-08-25T03:06:09;16.80;;;15.63;;
25231;SDS011;13176;51.140;6.290;2022-08-25T03:08:40;17.48;;;16.08;;
25231;SDS011;13176;51.140;6.290;2022-08-25T03:11:08;18.52;;;17.25;;
25231;SDS011;13176;51.140;6.290;2022-08-25T03:13:34;17.40;;;16.20;;
25231;SDS011;13176;51.140;6.290;2022-08-25T03:16:02;20.08;;;18.77;;
25231;SDS011;13176;51.140;6.290;2022-08-25T03:18:36;21.00;;;19.20;;
25231;SDS011;13176;51.140;6.290;2022-08-25T03:21:04;20.63;;;19.23;;
25231;SDS011;13176;51.140;6.290;2022-08-25T03:23:30;20.75;;;18.85;;
25231;SDS011;13176;51.140;6.290;2022-08-25T03:25:56;18.42;;;17.13;;
25231;SDS011;13176;51.140;6.290;2022-08-25T03:28:42;19.73;;;18.17;;
25231;SDS011;13176;51.140;6.290;2022-08-25T03:31:08;18.08;;;16.98;;
25231;SDS011;13176;51.140;6.290;2022-08-25T03:33:35;21.70;;;20.10;;
25231;SDS011;13176;51.140;6.290;2022-08-25T03:36:03;17.40;;;16.33;;
25231;SDS011;13176;51.140;6.290;2022-08-25T03:38:31;17.67;;;16.38;;
25231;SDS011;13176;51.140;6.290;2022-08-25T03:40:58;19.88;;;18.67;;
25231;SDS011;13176;51.140;6.290;2022-08-25T03:43:25;18.50;;;17.30;;
25231;SDS011;13176;51.140;6.290;2022-08-25T03:45:51;17.45;;;16.33;;
25231;SDS011;13176;51.140;6.290;2022-08-25T03:48:18;18.50;;;17.40;;
25231;SDS011;13176;51.140;6.290;2022-08-25T03:50:48;17.40;;;16.20;;
25231;SDS011;13176;51.140;6.290;2022-08-25T03:53:18;20.33;;;18.98;;
25231;SDS011;13176;51.140;6.290;2022-08-25T03:55:45;20.50;;;19.15;;
25231;SDS011;13176;51.140;6.290;2022-08-25T03:58:12;20.85;;;19.42;;
25231;SDS011;13176;51.140;6.290;2022-08-25T04:00:38;20.92;;;19.63;;
25231;SDS011;13176;51.140;6.290;2022-08-25T04:03:05;20.30;;;18.60;;
25231;SDS011;13176;51.140;6.290;2022-08-25T04:05:32;20.08;;;18.55;;
25231;SDS011;13176;51.140;6.290;2022-08-25T04:07:59;20.27;;;18.85;;
25231;SDS011;13176;51.140;6.290;2022-08-25T04:10:27;20.52;;;19.27;;
25231;SDS011;13176;51.140;6.290;2022-08-25T04:12:54;21.38;;;20.00;;
25231;SDS011;13176;51.140;6.290;2022-08-25T04:15:21;20.35;;;19.15;;
25231;SDS011;13176;51.140;6.290;2022-08-25T04:17:47;21.23;;;19.88;;
25231;SDS011;13176;51.140;6.290;2022-08-25T04:20:17;21.83;;;20.27;;
25231;SDS011;13176;51.140;6.290;2022-08-25T04:22:44;23.48;;;21.77;;
25231;SDS011;13176;51.140;6.290;2022-08-25T04:25:12;20.67;;;19.30;;
25231;SDS011;13176;51.140;6.290;2022-08-25T04:27:38;20.48;;;19.08;;
25231;SDS011;13176;51.140;6.290;2022-08-25T04:30:05;23.40;;;21.25;;
25231;SDS011;13176;51.140;6.290;2022-08-25T04:32:34;20.15;;;18.55;;
25231;SDS011;13176;51.140;6.290;2022-08-25T04:35:02;20.30;;;18.88;;
25231;SDS011;13176;51.140;6.290;2022-08-25T04:37:30;21.05;;;19.60;;
25231;SDS011;13176;51.140;6.290;2022-08-25T04:39:56;21.70;;;20.08;;
25231;SDS011;13176;51.140;6.290;2022-08-25T04:42:23;22.98;;;21.15;;
25231;SDS011;13176;51.140;6.290;2022-08-25T04:44:51;22.45;;;20.52;;
25231;SDS011;13176;51.140;6.290;2022-08-25T04:47:17;20.85;;;19.17;;
25231;SDS011;13176;51.140;6.290;2022-08-25T04:49:44;20.20;;;18.75;;
25231;SDS011;13176;51.140;6.290;2022-08-25T04:52:10;21.85;;;19.10;;
25231;SDS011;13176;51.140;6.290;2022-08-25T04:54:39;19.08;;;17.77;;
25231;SDS011;13176;51.140;6.290;2022-08-25T04:57:06;21.48;;;19.73;;
25231;SDS011;13176;51.140;6.290;2022-08-25T04:59:32;21.85;;;19.75;;
25231;SDS011;13176;51.140;6.290;2022-08-25T05:01:59;22.98;;;21.10;;
25231;SDS011;13176;51.140;6.290;2022-08-25T05:04:30;21.85;;;19.75;;
25231;SDS011;13176;51.140;6.290;2022-08-25T05:06:58;24.23;;;21.85;;
25231;SDS011;13176;51.140;6.290;2022-08-25T05:09:26;22.20;;;20.15;;
25231;SDS011;13176;51.140;6.290;2022-08-25T05:11:53;23.15;;;20.75;;
25231;SDS011;13176;51.140;6.290;2022-08-25T05:14:20;23.45;;;21.85;;
25231;SDS011;13176;51.140;6.290;2022-08-25T05:16:51;20.75;;;18.90;;
25231;SDS011;13176;51.140;6.290;2022-08-25T05:19:18;21.48;;;19.92;;
25231;SDS011;13176;51.140;6.290;2022-08-25T05:21:45;19.88;;;18.05;;
25231;SDS011;13176;51.140;6.290;2022-08-25T05:24:11;27.65;;;25.33;;
25231;SDS011;13176;51.140;6.290;2022-08-25T05:26:38;27.80;;;25.60;;
25231;SDS011;13176;51.140;6.290;2022-08-25T05:29:04;23.58;;;21.58;;
25231;SDS011;13176;51.140;6.290;2022-08-25T05:31:32;24.65;;;22.60;;
25231;SDS011;13176;51.140;6.290;2022-08-25T05:34:07;26.42;;;24.25;;
25231;SDS011;13176;51.140;6.290;2022-08-25T05:36:33;22.55;;;20.38;;
25231;SDS011;13176;51.140;6.290;2022-08-25T05:39:00;22.52;;;20.70;;
25231;SDS011;13176;51.140;6.290;2022-08-25T05:41:28;18.92;;;17.42;;
25231;SDS011;13176;51.140;6.290;2022-08-25T05:43:55;25.38;;;23.45;;
25231;SDS011;13176;51.140;6.290;2022-08-25T05:46:22;29.92;;;27.73;;
25231;SDS011;13176;51.140;6.290;2022-08-25T05:48:49;23.92;;;21.88;;
25231;SDS011;13176;51.140;6.290;2022-08-25T05:51:17;23.38;;;21.48;;
25231;SDS011;13176;51.140;6.290;2022-08-25T05:53:45;21.38;;;19.77;;
25231;SDS011;13176;51.140;6.290;2022-08-25T05:56:14;27.23;;;24.40;;
25231;SDS011;13176;51.140;6.290;2022-08-25T05:58:41;20.98;;;19.00;;
25231;SDS011;13176;51.140;6.290;2022-08-25T06:01:08;25.90;;;23.92;;
25231;SDS011;13176;51.140;6.290;2022-08-25T06:03:54;17.92;;;16.73;;
25231;SDS011;13176;51.140;6.290;2022-08-25T06:06:21;20.55;;;18.73;;
25231;SDS011;13176;51.140;6.290;2022-08-25T06:08:49;19.58;;;17.92;;
25231;SDS011;13176;51.140;6.290;2022-08-25T06:11:16;22.90;;;21.25;;
25231;SDS011;13176;51.140;6.290;2022-08-25T06:13:43;20.15;;;18.38;;
25231;SDS011;13176;51.140;6.290;2022-08-25T06:16:10;21.13;;;19.20;;
25231;SDS011;13176;51.140;6.290;2022-08-25T06:18:37;21.92;;;19.73;;
25231;SDS011;13176;51.140;6.290;2022-08-25T06:21:10;25.73;;;23.70;;
25231;SDS011;13176;51.140;6.290;2022-08-25T06:23:39;21.13;;;19.42;;
25231;SDS011;13176;51.140;6.290;2022-08-25T06:26:06;24.90;;;22.88;;
25231;SDS011;13176;51.140;6.290;2022-08-25T06:28:46;31.17;;;28.98;;
25231;SDS011;13176;51.140;6.290;2022-08-25T06:31:13;30.85;;;27.77;;
25231;SDS011;13176;51.140;6.290;2022-08-25T06:33:40;27.48;;;25.52;;
25231;SDS011;13176;51.140;6.290;2022-08-25T06:36:06;24.52;;;22.52;;
25231;SDS011;13176;51.140;6.290;2022-08-25T06:38:34;26.65;;;24.88;;
25231;SDS011;13176;51.140;6.290;2022-08-25T06:41:04;26.98;;;25.15;;
25231;SDS011;13176;51.140;6.290;2022-08-25T06:43:32;28.67;;;26.70;;
25231;SDS011;13176;51.140;6.290;2022-08-25T06:46:12;29.95;;;27.40;;
25231;SDS011;13176;51.140;6.290;2022-08-25T06:48:41;28.55;;;26.00;;
25231;SDS011;13176;51.140;6.290;2022-08-25T06:51:09;28.70;;;26.80;;
25231;SDS011;13176;51.140;6.290;2022-08-25T06:53:39;25.88;;;23.83;;
25231;SDS011;13176;51.140;6.290;2022-08-25T06:56:06;27.08;;;25.35;;
25231;SDS011;13176;51.140;6.290;2022-08-25T06:58:33;27.52;;;25.42;;
25231;SDS011;13176;51.140;6.290;2022-08-25T07:03:45;25.08;;;22.92;;
25231;SDS011;13176;51.140;6.290;2022-08-25T07:06:12;24.50;;;22.73;;
25231;SDS011;13176;51.140;6.290;2022-08-25T07:08:43;21.40;;;19.38;;
25231;SDS011;13176;51.140;6.290;2022-08-25T07:11:11;23.17;;;21.08;;
25231;SDS011;13176;51.140;6.290;2022-08-25T07:13:42;22.55;;;20.60;;
25231;SDS011;13176;51.140;6.290;2022-08-25T07:16:10;19.75;;;18.00;;
25231;SDS011;13176;51.140;6.290;2022-08-25T07:18:37;16.65;;;14.35;;
25231;SDS011;13176;51.140;6.290;2022-08-25T07:21:04;15.95;;;14.48;;
25231;SDS011;13176;51.140;6.290;2022-08-25T07:23:34;15.70;;;14.10;;
25231;SDS011;13176;51.140;6.290;2022-08-25T07:26:34;13.93;;;12.73;;
25231;SDS011;13176;51.140;6.290;2022-08-25T07:29:10;15.00;;;13.55;;
25231;SDS011;13176;51.140;6.290;2022-08-25T07:31:38;13.85;;;10.90;;
25231;SDS011;13176;51.140;6.290;2022-08-25T07:34:06;12.15;;;11.32;;
25231;SDS011;13176;51.140;6.290;2022-08-25T07:36:54;10.70;;;9.73;;
25231;SDS011;13176;51.140;6.290;2022-08-25T07:39:21;13.07;;;11.27;;
25231;SDS011;13176;51.140;6.290;2022-08-25T07:41:49;19.55;;;10.75;;
25231;SDS011;13176;51.140;6.290;2022-08-25T07:44:18;15.00;;;13.38;;
25231;SDS011;13176;51.140;6.290;2022-08-25T07:46:46;17.90;;;16.50;;
25231;SDS011;13176;51.140;6.290;2022-08-25T07:49:15;17.90;;;13.40;;
25231;SDS011;13176;51.140;6.290;2022-08-25T07:51:43;17.80;;;16.23;;
25231;SDS011;13176;51.140;6.290;2022-08-25T07:54:30;19.88;;;18.17;;
25231;SDS011;13176;51.140;6.290;2022-08-25T07:56:59;19.30;;;17.67;;
25231;SDS011;13176;51.140;6.290;2022-08-25T07:59:25;19.60;;;18.15;;
25231;SDS011;13176;51.140;6.290;2022-08-25T08:01:52;23.13;;;21.52;;
25231;SDS011;13176;51.140;6.290;2022-08-25T08:04:18;21.65;;;19.88;;
25231;SDS011;13176;51.140;6.290;2022-08-25T08:06:45;26.08;;;24.17;;
25231;SDS011;13176;51.140;6.290;2022-08-25T08:09:11;28.13;;;26.10;;
25231;SDS011;13176;51.140;6.290;2022-08-25T08:11:38;27.40;;;25.45;;
25231;SDS011;13176;51.140;6.290;2022-08-25T08:14:19;26.60;;;24.73;;
25231;SDS011;13176;51.140;6.290;2022-08-25T08:16:46;21.98;;;20.67;;
25231;SDS011;13176;51.140;6.290;2022-08-25T08:19:12;22.92;;;20.92;;
25231;SDS011;13176;51.140;6.290;2022-08-25T08:21:39;29.23;;;27.02;;
25231;SDS011;13176;51.140;6.290;2022-08-25T08:24:05;25.10;;;23.38;;
25231;SDS011;13176;51.140;6.290;2022-08-25T08:26:50;21.50;;;19.98;;
25231;SDS011;13176;51.140;6.290;2022-08-25T08:29:24;18.63;;;16.95;;
25231;SDS011;13176;51.140;6.290;2022-08-25T08:31:50;17.10;;;15.55;;
25231;SDS011;13176;51.140;6.290;2022-08-25T08:34:17;19.30;;;17.70;;
25231;SDS011;13176;51.140;6.290;2022-08-25T08:36:43;16.33;;;15.05;;
25231;SDS011;13176;51.140;6.290;2022-08-25T08:39:10;15.65;;;14.45;;
25231;SDS011;13176;51.140;6.290;2022-08-25T08:50:15;12.30;;;11.55;;
25231;SDS011;13176;51.140;6.290;2022-08-25T08:53:13;12.23;;;11.30;;
25231;SDS011;13176;51.140;6.290;2022-08-25T08:55:48;11.77;;;10.88;;
25231;SDS011;13176;51.140;6.290;2022-08-25T08:58:22;12.60;;;11.68;;
25231;SDS011;13176;51.140;6.290;2022-08-25T09:00:53;10.70;;;10.00;;
25231;SDS011;13176;51.140;6.290;2022-08-25T09:06:12;11.32;;;10.57;;
25231;SDS011;13176;51.140;6.290;2022-08-25T09:08:45;10.95;;;10.13;;
25231;SDS011;13176;51.140;6.290;2022-08-25T09:14:11;53.78;;;15.63;;
25231;SDS011;13176;51.140;6.290;2022-08-25T09:17:03;13.90;;;12.77;;
25231;SDS011;13176;51.140;6.290;2022-08-25T09:33:27;11.43;;;10.50;;
25231;SDS011;13176;51.140;6.290;2022-08-25T09:35:55;14.18;;;10.80;;
25231;SDS011;13176;51.140;6.290;2022-08-25T09:38:23;11.45;;;10.60;;
25231;SDS011;13176;51.140;6.290;2022-08-25T09:40:54;62.40;;;15.77;;
25231;SDS011;13176;51.140;6.290;2022-08-25T09:43:36;12.98;;;11.75;;
25231;SDS011;13176;51.140;6.290;2022-08-25T09:46:13;12.45;;;11.50;;
25231;SDS011;13176;51.140;6.290;2022-08-25T09:48:46;18.98;;;17.45;;
25231;SDS011;13176;51.140;6.290;2022-08-25T09:51:26;20.17;;;19.10;;
25231;SDS011;13176;51.140;6.290;2022-08-25T09:56:50;20.95;;;19.75;;
25231;SDS011;13176;51.140;6.290;2022-08-25T09:59:26;18.70;;;17.38;;
25231;SDS011;13176;51.140;6.290;2022-08-25T10:02:21;20.95;;;19.30;;
25231;SDS011;13176;51.140;6.290;2022-08-25T10:04:51;16.83;;;15.48;;
25231;SDS011;13176;51.140;6.290;2022-08-25T10:08:21;18.17;;;17.15;;
25231;SDS011;13176;51.140;6.290;2022-08-25T10:10:33;13.90;;;12.75;;
25231;SDS011;13176;51.140;6.290;2022-08-25T10:13:14;11.55;;;10.90;;
25231;SDS011;13176;51.140;6.290;2022-08-25T10:15:51;11.30;;;10.60;;
25231;SDS011;13176;51.140;6.290;2022-08-25T10:22:03;10.55;;;9.75;;
25231;SDS011;13176;51.140;6.290;2022-08-25T10:24:38;11.88;;;10.93;;
25231;SDS011;13176;51.140;6.290;2022-08-25T10:30:03;12.00;;;10.95;;
25231;SDS011;13176;51.140;6.290;2022-08-25T10:35:25;10.70;;;10.00;;
25231;SDS011;13176;51.140;6.290;2022-08-25T10:40:50;10.68;;;9.90;;
25231;SDS011;13176;51.140;6.290;2022-08-25T10:49:09;10.45;;;9.50;;
25231;SDS011;13176;51.140;6.290;2022-08-25T10:54:25;10.98;;;9.93;;
25231;SDS011;13176;51.140;6.290;2022-08-25T10:57:02;10.48;;;9.68;;
25231;SDS011;13176;51.140;6.290;2022-08-25T11:02:29;9.15;;;8.45;;
25231;SDS011;13176;51.140;6.290;2022-08-25T11:05:02;9.00;;;8.30;;
25231;SDS011;13176;51.140;6.290;2022-08-25T11:07:35;9.85;;;8.50;;
25231;SDS011;13176;51.140;6.290;2022-08-25T11:12:52;17.33;;;10.23;;
25231;SDS011;13176;51.140;6.290;2022-08-25T11:15:37;12.18;;;11.52;;
25231;SDS011;13176;51.140;6.290;2022-08-25T11:18:30;14.48;;;13.38;;
25231;SDS011;13176;51.140;6.290;2022-08-25T11:21:11;16.42;;;15.13;;
25231;SDS011;13176;51.140;6.290;2022-08-25T11:23:49;15.27;;;14.32;;
25231;SDS011;13176;51.140;6.290;2022-08-25T11:26:37;15.73;;;14.75;;
25231;SDS011;13176;51.140;6.290;2022-08-25T11:29:13;16.02;;;14.93;;
25231;SDS011;13176;51.140;6.290;2022-08-25T11:31:43;15.00;;;14.17;;
25231;SDS011;13176;51.140;6.290;2022-08-25T11:34:18;16.65;;;15.35;;
25231;SDS011;13176;51.140;6.290;2022-08-25T11:36:54;15.18;;;14.02;;
25231;SDS011;13176;51.140;6.290;2022-08-25T11:40:05;13.70;;;12.70;;
25231;SDS011;13176;51.140;6.290;2022-08-25T11:42:55;14.05;;;13.05;;
25231;SDS011;13176;51.140;6.290;2022-08-25T11:48:15;14.02;;;13.13;;
25231;SDS011;13176;51.140;6.290;2022-08-25T11:53:35;12.57;;;11.73;;
25231;SDS011;13176;51.140;6.290;2022-08-25T11:56:08;13.25;;;10.20;;
25231;SDS011;13176;51.140;6.290;2022-08-25T11:58:38;10.10;;;9.30;;
25231;SDS011;13176;51.140;6.290;2022-08-25T12:07:18;9.52;;;8.63;;
25231;SDS011;13176;51.140;6.290;2022-08-25T12:12:37;9.52;;;9.00;;
25231;SDS011;13176;51.140;6.290;2022-08-25T12:15:32;9.63;;;8.73;;
25231;SDS011;13176;51.140;6.290;2022-08-25T12:37:13;16.73;;;15.02;;
25231;SDS011;13176;51.140;6.290;2022-08-25T12:39:44;20.50;;;19.30;;
25231;SDS011;13176;51.140;6.290;2022-08-25T12:42:27;19.83;;;18.52;;
25231;SDS011;13176;51.140;6.290;2022-08-25T12:45:08;19.85;;;18.67;;
25231;SDS011;13176;51.140;6.290;2022-08-25T12:47:51;22.38;;;20.98;;
25231;SDS011;13176;51.140;6.290;2022-08-25T12:53:10;19.55;;;18.45;;
25231;SDS011;13176;51.140;6.290;2022-08-25T12:55:45;21.33;;;19.88;;
25231;SDS011;13176;51.140;6.290;2022-08-25T12:58:16;18.42;;;17.23;;
25231;SDS011;13176;51.140;6.290;2022-08-25T13:11:52;16.65;;;15.75;;
25231;SDS011;13176;51.140;6.290;2022-08-25T13:14:23;14.18;;;13.43;;
25231;SDS011;13176;51.140;6.290;2022-08-25T13:17:03;17.58;;;16.67;;
25231;SDS011;13176;51.140;6.290;2022-08-25T13:19:31;16.75;;;15.60;;
25231;SDS011;13176;51.140;6.290;2022-08-25T13:22:01;15.38;;;14.48;;
25231;SDS011;13176;51.140;6.290;2022-08-25T13:24:41;15.63;;;14.73;;
25231;SDS011;13176;51.140;6.290;2022-08-25T13:27:20;15.00;;;14.20;;
25231;SDS011;13176;51.140;6.290;2022-08-25T13:29:54;15.07;;;14.25;;
25231;SDS011;13176;51.140;6.290;2022-08-25T13:32:25;15.60;;;14.70;;
25231;SDS011;13176;51.140;6.290;2022-08-25T13:35:07;14.93;;;14.13;;
25231;SDS011;13176;51.140;6.290;2022-08-25T13:37:50;15.05;;;14.32;;
25231;SDS011;13176;51.140;6.290;2022-08-25T13:42:55;17.35;;;16.35;;
25231;SDS011;13176;51.140;6.290;2022-08-25T13:45:27;18.52;;;17.25;;
25231;SDS011;13176;51.140;6.290;2022-08-25T13:47:57;18.67;;;17.67;;
25231;SDS011;13176;51.140;6.290;2022-08-25T13:55:46;18.48;;;17.38;;
25231;SDS011;13176;51.140;6.290;2022-08-25T13:58:19;17.98;;;16.88;;
25231;SDS011;13176;51.140;6.290;2022-08-25T14:04:26;13.55;;;12.82;;
25231;SDS011;13176;51.140;6.290;2022-08-25T14:12:27;14.05;;;13.25;;
25231;SDS011;13176;51.140;6.290;2022-08-25T14:15:09;11.73;;;10.85;;
25231;SDS011;13176;51.140;6.290;2022-08-25T14:17:46;8.02;;;7.63;;
25231;SDS011;13176;51.140;6.290;2022-08-25T14:20:25;7.70;;;7.20;;
25231;SDS011;13176;51.140;6.290;2022-08-25T14:22:54;8.68;;;8.02;;
25231;SDS011;13176;51.140;6.290;2022-08-25T14:25:25;7.45;;;6.95;;
25231;SDS011;13176;51.140;6.290;2022-08-25T14:27:59;8.45;;;7.85;;
25231;SDS011;13176;51.140;6.290;2022-08-25T14:30:36;7.20;;;6.80;;
25231;SDS011;13176;51.140;6.290;2022-08-25T14:33:22;7.28;;;6.78;;
25231;SDS011;13176;51.140;6.290;2022-08-25T14:35:56;7.10;;;6.70;;
25231;SDS011;13176;51.140;6.290;2022-08-25T14:38:24;7.63;;;7.22;;
25231;SDS011;13176;51.140;6.290;2022-08-25T14:40:51;7.53;;;7.05;;
25231;SDS011;13176;51.140;6.290;2022-08-25T14:43:19;7.28;;;6.88;;
25231;SDS011;13176;51.140;6.290;2022-08-25T14:45:56;6.57;;;6.18;;
25231;SDS011;13176;51.140;6.290;2022-08-25T14:48:31;8.20;;;7.70;;
25231;SDS011;13176;51.140;6.290;2022-08-25T14:51:11;8.32;;;7.72;;
25231;SDS011;13176;51.140;6.290;2022-08-25T14:53:40;8.30;;;7.60;;
25231;SDS011;13176;51.140;6.290;2022-08-25T14:56:08;10.25;;;9.25;;
25231;SDS011;13176;51.140;6.290;2022-08-25T14:58:35;8.70;;;8.10;;
25231;SDS011;13176;51.140;6.290;2022-08-25T15:01:19;9.35;;;8.73;;
25231;SDS011;13176;51.140;6.290;2022-08-25T15:03:56;8.70;;;8.13;;
25231;SDS011;13176;51.140;6.290;2022-08-25T15:06:27;8.43;;;7.82;;
25231;SDS011;13176;51.140;6.290;2022-08-25T15:08:54;8.05;;;7.03;;
25231;SDS011;13176;51.140;6.290;2022-08-25T15:11:33;8.00;;;7.50;;
25231;SDS011;13176;51.140;6.290;2022-08-25T15:14:03;9.15;;;8.45;;
25231;SDS011;13176;51.140;6.290;2022-08-25T15:16:40;8.70;;;7.47;;
25231;SDS011;13176;51.140;6.290;2022-08-25T15:19:11;9.20;;;8.70;;
25231;SDS011;13176;51.140;6.290;2022-08-25T15:21:42;8.95;;;8.35;;
25231;SDS011;13176;51.140;6.290;2022-08-25T15:24:10;8.45;;;7.63;;
25231;SDS011;13176;51.140;6.290;2022-08-25T15:26:43;8.75;;;8.05;;
25231;SDS011;13176;51.140;6.290;2022-08-25T15:29:20;8.65;;;8.15;;
25231;SDS011;13176;51.140;6.290;2022-08-25T15:31:48;8.90;;;8.30;;
25231;SDS011;13176;51.140;6.290;2022-08-25T15:34:15;11.10;;;9.05;;
25231;SDS011;13176;51.140;6.290;2022-08-25T15:36:42;7.82;;;7.32;;
25231;SDS011;13176;51.140;6.290;2022-08-25T15:39:09;8.18;;;7.57;;
25231;SDS011;13176;51.140;6.290;2022-08-25T15:41:36;7.82;;;7.43;;
25231;SDS011;13176;51.140;6.290;2022-08-25T15:44:04;8.63;;;7.93;;
25231;SDS011;13176;51.140;6.290;2022-08-25T15:46:33;8.38;;;7.78;;
25231;SDS011;13176;51.140;6.290;2022-08-25T15:49:01;8.73;;;8.15;;
25231;SDS011;13176;51.140;6.290;2022-08-25T15:51:29;8.70;;;8.20;;
25231;SDS011;13176;51.140;6.290;2022-08-25T15:53:56;8.73;;;8.05;;
25231;SDS011;13176;51.140;6.290;2022-08-25T15:56:23;9.48;;;8.77;;
25231;SDS011;13176;51.140;6.290;2022-08-25T15:58:52;9.00;;;8.40;;
25231;SDS011;13176;51.140;6.290;2022-08-25T16:01:20;9.25;;;8.25;;
25231;SDS011;13176;51.140;6.290;2022-08-25T16:03:50;8.90;;;8.18;;
25231;SDS011;13176;51.140;6.290;2022-08-25T16:06:17;9.07;;;8.25;;
25231;SDS011;13176;51.140;6.290;2022-08-25T16:08:44;9.35;;;8.63;;
25231;SDS011;13176;51.140;6.290;2022-08-25T16:11:30;9.77;;;9.15;;
25231;SDS011;13176;51.140;6.290;2022-08-25T16:14:00;9.00;;;8.50;;
25231;SDS011;13176;51.140;6.290;2022-08-25T16:16:27;9.73;;;8.85;;
25231;SDS011;13176;51.140;6.290;2022-08-25T16:18:56;10.25;;;9.45;;
25231;SDS011;13176;51.140;6.290;2022-08-25T16:21:25;9.95;;;9.20;;
25231;SDS011;13176;51.140;6.290;2022-08-25T16:23:56;9.85;;;9.25;;
25231;SDS011;13176;51.140;6.290;2022-08-25T16:26:27;10.60;;;9.90;;
25231;SDS011;13176;51.140;6.290;2022-08-25T16:28:55;9.38;;;8.70;;
25231;SDS011;13176;51.140;6.290;2022-08-25T16:31:22;10.27;;;9.57;;
25231;SDS011;13176;51.140;6.290;2022-08-25T16:33:49;9.80;;;8.98;;
25231;SDS011;13176;51.140;6.290;2022-08-25T16:38:52;8.57;;;8.07;;
25231;SDS011;13176;51.140;6.290;2022-08-25T16:41:21;10.15;;;9.45;;
25231;SDS011;13176;51.140;6.290;2022-08-25T16:43:50;10.63;;;9.73;;
25231;SDS011;13176;51.140;6.290;2022-08-25T16:46:17;11.82;;;11.02;;
25231;SDS011;13176;51.140;6.290;2022-08-25T16:48:46;12.32;;;11.48;;
25231;SDS011;13176;51.140;6.290;2022-08-25T16:51:16;13.65;;;12.50;;
25231;SDS011;13176;51.140;6.290;2022-08-25T16:53:50;13.65;;;12.52;;
25231;SDS011;13176;51.140;6.290;2022-08-25T16:56:36;44.75;;;16.75;;
25231;SDS011;13176;51.140;6.290;2022-08-25T16:59:04;14.65;;;12.45;;